sensor_id;sensor_type;location;lat;lon;timestamp;temperature;humidity
53643;DHT22;39546;45.534;12.048;2024-01-30T00:00:39;5.50;80.50
53643;DHT22;39546;45.534;12.048;2024-01-30T00:06:40;5.20;80.90
53643;DHT22;39546;45.534;12.048;2024-01-30T00:12:42;5.20;80.70
53643;DHT22;39546;45.534;12.048;2024-01-30T00:18:43;5.10;81.00
53643;DHT22;39546;45.534;12.048;2024-01-30T00:24:45;5.20;80.80
53643;DHT22;39546;45.534;12.048;2024-01-30T00:30:47;5.20;80.60
53643;DHT22;39546;45.534;12.048;2024-01-30T00:36:48;5.20;80.30
53643;DHT22;39546;45.534;12.048;2024-01-30T00:42:50;4.90;80.80
53643;DHT22;39546;45.534;12.048;2024-01-30T00:48:51;4.80;81.10
53643;DHT22;39546;45.534;12.048;2024-01-30T00:54:53;4.70;81.00
53643;DHT22;39546;45.534;12.048;2024-01-30T01:00:54;4.80;80.90
53643;DHT22;39546;45.534;12.048;2024-01-30T01:06:56;4.80;80.80
53643;DHT22;39546;45.534;12.048;2024-01-30T01:12:57;4.70;80.70
53643;DHT22;39546;45.534;12.048;2024-01-30T01:18:59;4.80;80.60
53643;DHT22;39546;45.534;12.048;2024-01-30T01:25:01;4.70;80.50
53643;DHT22;39546;45.534;12.048;2024-01-30T01:31:03;4.60;80.20
53643;DHT22;39546;45.534;12.048;2024-01-30T01:37:06;4.10;80.80
53643;DHT22;39546;45.534;12.048;2024-01-30T01:43:08;3.80;81.50
53643;DHT22;39546;45.534;12.048;2024-01-30T01:49:10;3.70;81.80
53643;DHT22;39546;45.534;12.048;2024-01-30T01:55:12;3.60;82.10
53643;DHT22;39546;45.534;12.048;2024-01-30T02:01:16;3.50;82.20
53643;DHT22;39546;45.534;12.048;2024-01-30T02:07:20;3.30;82.30
53643;DHT22;39546;45.534;12.048;2024-01-30T02:13:22;3.30;82.30
53643;DHT22;39546;45.534;12.048;2024-01-30T02:19:23;3.20;82.40
53643;DHT22;39546;45.534;12.048;2024-01-30T02:25:35;3.10;82.50
53643;DHT22;39546;45.534;12.048;2024-01-30T02:31:37;3.00;82.70
53643;DHT22;39546;45.534;12.048;2024-01-30T02:37:39;3.10;82.80
53643;DHT22;39546;45.534;12.048;2024-01-30T02:43:40;3.00;82.60
53643;DHT22;39546;45.534;12.048;2024-01-30T02:49:42;2.80;82.60
53643;DHT22;39546;45.534;12.048;2024-01-30T02:55:43;2.60;82.80
53643;DHT22;39546;45.534;12.048;2024-01-30T03:07:47;2.50;82.70
53643;DHT22;39546;45.534;12.048;2024-01-30T03:13:49;2.50;83.10
53643;DHT22;39546;45.534;12.048;2024-01-30T03:19:51;2.50;83.00
53643;DHT22;39546;45.534;12.048;2024-01-30T03:25:52;2.50;82.90
53643;DHT22;39546;45.534;12.048;2024-01-30T03:31:54;2.60;83.30
53643;DHT22;39546;45.534;12.048;2024-01-30T03:37:56;2.70;82.90
53643;DHT22;39546;45.534;12.048;2024-01-30T03:43:57;2.60;82.90
53643;DHT22;39546;45.534;12.048;2024-01-30T03:49:59;3.10;83.20
53643;DHT22;39546;45.534;12.048;2024-01-30T03:56:01;3.30;82.40
53643;DHT22;39546;45.534;12.048;2024-01-30T04:02:02;3.20;82.30
53643;DHT22;39546;45.534;12.048;2024-01-30T04:08:04;3.00;82.70
53643;DHT22;39546;45.534;12.048;2024-01-30T04:14:06;2.90;83.00
53643;DHT22;39546;45.534;12.048;2024-01-30T04:20:11;3.00;83.10
53643;DHT22;39546;45.534;12.048;2024-01-30T04:26:13;3.30;82.70
53643;DHT22;39546;45.534;12.048;2024-01-30T04:32:15;3.20;82.60
53643;DHT22;39546;45.534;12.048;2024-01-30T04:38:17;3.50;82.70
53643;DHT22;39546;45.534;12.048;2024-01-30T04:44:18;3.50;81.80
53643;DHT22;39546;45.534;12.048;2024-01-30T04:50:20;3.20;82.10
53643;DHT22;39546;45.534;12.048;2024-01-30T04:56:22;2.90;82.50
53643;DHT22;39546;45.534;12.048;2024-01-30T05:02:23;2.70;82.70
53643;DHT22;39546;45.534;12.048;2024-01-30T05:08:25;2.60;82.90
53643;DHT22;39546;45.534;12.048;2024-01-30T05:14:26;2.50;83.20
53643;DHT22;39546;45.534;12.048;2024-01-30T05:20:28;2.70;83.60
53643;DHT22;39546;45.534;12.048;2024-01-30T05:26:30;2.80;82.80
53643;DHT22;39546;45.534;12.048;2024-01-30T05:32:31;2.90;83.10
53643;DHT22;39546;45.534;12.048;2024-01-30T05:38:33;2.80;82.70
53643;DHT22;39546;45.534;12.048;2024-01-30T05:44:35;2.90;82.80
53643;DHT22;39546;45.534;12.048;2024-01-30T05:56:38;3.30;82.60
53643;DHT22;39546;45.534;12.048;2024-01-30T06:02:59;3.10;82.00
53643;DHT22;39546;45.534;12.048;2024-01-30T06:09:01;2.80;82.60
53643;DHT22;39546;45.534;12.048;2024-01-30T06:15:03;3.20;83.00
53643;DHT22;39546;45.534;12.048;2024-01-30T06:21:05;3.60;82.00
53643;DHT22;39546;45.534;12.048;2024-01-30T06:27:06;3.60;81.90
53643;DHT22;39546;45.534;12.048;2024-01-30T06:33:08;3.40;81.50
53643;DHT22;39546;45.534;12.048;2024-01-30T06:39:10;3.20;82.00
53643;DHT22;39546;45.534;12.048;2024-01-30T06:45:11;3.20;82.30
53643;DHT22;39546;45.534;12.048;2024-01-30T06:51:13;3.10;82.10
53643;DHT22;39546;45.534;12.048;2024-01-30T06:57:15;3.10;82.20
53643;DHT22;39546;45.534;12.048;2024-01-30T07:03:16;3.10;82.50
53643;DHT22;39546;45.534;12.048;2024-01-30T07:09:18;3.20;82.00
53643;DHT22;39546;45.534;12.048;2024-01-30T07:15:19;2.90;82.20
53643;DHT22;39546;45.534;12.048;2024-01-30T07:21:21;3.30;82.70
53643;DHT22;39546;45.534;12.048;2024-01-30T07:27:28;3.40;82.40
53643;DHT22;39546;45.534;12.048;2024-01-30T07:33:30;3.70;81.60
53643;DHT22;39546;45.534;12.048;2024-01-30T07:39:32;3.10;81.20
53643;DHT22;39546;45.534;12.048;2024-01-30T07:45:33;2.70;81.80
53643;DHT22;39546;45.534;12.048;2024-01-30T07:51:35;2.50;82.40
53643;DHT22;39546;45.534;12.048;2024-01-30T07:57:39;2.40;83.00
53643;DHT22;39546;45.534;12.048;2024-01-30T08:03:41;2.70;82.80
53643;DHT22;39546;45.534;12.048;2024-01-30T08:09:43;2.70;83.00
53643;DHT22;39546;45.534;12.048;2024-01-30T08:15:45;2.70;83.10
53643;DHT22;39546;45.534;12.048;2024-01-30T08:21:47;3.00;82.90
53643;DHT22;39546;45.534;12.048;2024-01-30T08:27:49;3.10;83.30
53643;DHT22;39546;45.534;12.048;2024-01-30T08:33:52;3.20;81.70
53643;DHT22;39546;45.534;12.048;2024-01-30T08:39:54;3.20;83.20
53643;DHT22;39546;45.534;12.048;2024-01-30T08:45:56;3.50;83.60
53643;DHT22;39546;45.534;12.048;2024-01-30T08:51:59;3.70;83.30
53643;DHT22;39546;45.534;12.048;2024-01-30T08:58:01;3.70;83.20
53643;DHT22;39546;45.534;12.048;2024-01-30T09:04:05;3.50;83.10
53643;DHT22;39546;45.534;12.048;2024-01-30T09:10:07;3.70;84.20
53643;DHT22;39546;45.534;12.048;2024-01-30T09:16:08;4.00;83.30
53643;DHT22;39546;45.534;12.048;2024-01-30T09:22:10;4.30;83.90
53643;DHT22;39546;45.534;12.048;2024-01-30T09:28:12;4.20;83.50
53643;DHT22;39546;45.534;12.048;2024-01-30T09:34:34;4.00;83.80
53643;DHT22;39546;45.534;12.048;2024-01-30T09:40:37;3.90;84.00
53643;DHT22;39546;45.534;12.048;2024-01-30T09:46:39;4.00;84.50
53643;DHT22;39546;45.534;12.048;2024-01-30T09:52:43;4.20;83.80
53643;DHT22;39546;45.534;12.048;2024-01-30T09:58:46;4.20;84.30
53643;DHT22;39546;45.534;12.048;2024-01-30T10:04:49;4.50;84.50
53643;DHT22;39546;45.534;12.048;2024-01-30T10:10:51;4.50;84.20
53643;DHT22;39546;45.534;12.048;2024-01-30T10:16:52;4.40;84.00
53643;DHT22;39546;45.534;12.048;2024-01-30T10:22:54;4.50;84.30
53643;DHT22;39546;45.534;12.048;2024-01-30T10:28:56;4.80;84.80
53643;DHT22;39546;45.534;12.048;2024-01-30T10:34:57;5.30;84.60
53643;DHT22;39546;45.534;12.048;2024-01-30T10:41:08;5.50;83.70
53643;DHT22;39546;45.534;12.048;2024-01-30T10:47:22;5.40;83.40
53643;DHT22;39546;45.534;12.048;2024-01-30T10:53:25;5.60;84.10
53643;DHT22;39546;45.534;12.048;2024-01-30T10:59:28;5.80;83.90
53643;DHT22;39546;45.534;12.048;2024-01-30T11:05:33;6.00;83.90
53643;DHT22;39546;45.534;12.048;2024-01-30T11:11:57;6.20;83.80
53643;DHT22;39546;45.534;12.048;2024-01-30T11:18:02;6.40;83.80
53643;DHT22;39546;45.534;12.048;2024-01-30T11:24:04;6.60;83.40
53643;DHT22;39546;45.534;12.048;2024-01-30T11:30:08;6.80;83.10
53643;DHT22;39546;45.534;12.048;2024-01-30T11:36:13;7.20;82.80
53643;DHT22;39546;45.534;12.048;2024-01-30T11:42:16;7.30;82.10
53643;DHT22;39546;45.534;12.048;2024-01-30T11:48:18;7.60;82.30
53643;DHT22;39546;45.534;12.048;2024-01-30T11:54:21;8.00;82.50
53643;DHT22;39546;45.534;12.048;2024-01-30T12:00:23;8.20;82.10
53643;DHT22;39546;45.534;12.048;2024-01-30T12:06:24;8.40;82.50
53643;DHT22;39546;45.534;12.048;2024-01-30T12:12:27;8.70;82.20
53643;DHT22;39546;45.534;12.048;2024-01-30T12:18:30;8.80;81.50
53643;DHT22;39546;45.534;12.048;2024-01-30T12:24:31;8.90;81.90
53643;DHT22;39546;45.534;12.048;2024-01-30T12:30:35;9.00;81.70
53643;DHT22;39546;45.534;12.048;2024-01-30T12:36:39;9.10;81.70
53643;DHT22;39546;45.534;12.048;2024-01-30T12:42:41;9.10;81.90
53643;DHT22;39546;45.534;12.048;2024-01-30T12:48:48;9.20;81.40
53643;DHT22;39546;45.534;12.048;2024-01-30T12:54:50;9.20;81.90
53643;DHT22;39546;45.534;12.048;2024-01-30T13:01:01;9.40;81.50
53643;DHT22;39546;45.534;12.048;2024-01-30T13:07:17;9.40;81.40
53643;DHT22;39546;45.534;12.048;2024-01-30T13:13:20;9.50;81.90
53643;DHT22;39546;45.534;12.048;2024-01-30T13:19:47;9.60;81.70
53643;DHT22;39546;45.534;12.048;2024-01-30T13:26:10;9.70;81.10
53643;DHT22;39546;45.534;12.048;2024-01-30T13:32:12;9.90;81.10
53643;DHT22;39546;45.534;12.048;2024-01-30T13:38:14;9.90;80.40
53643;DHT22;39546;45.534;12.048;2024-01-30T13:44:18;9.90;80.80
53643;DHT22;39546;45.534;12.048;2024-01-30T13:50:25;10.00;80.50
53643;DHT22;39546;45.534;12.048;2024-01-30T13:56:27;10.10;80.30
53643;DHT22;39546;45.534;12.048;2024-01-30T14:02:29;10.20;81.10
53643;DHT22;39546;45.534;12.048;2024-01-30T14:08:31;10.30;81.70
53643;DHT22;39546;45.534;12.048;2024-01-30T14:14:35;10.40;80.90
53643;DHT22;39546;45.534;12.048;2024-01-30T14:20:43;10.40;81.10
53643;DHT22;39546;45.534;12.048;2024-01-30T14:26:45;10.40;80.90
53643;DHT22;39546;45.534;12.048;2024-01-30T14:33:00;10.50;81.20
53643;DHT22;39546;45.534;12.048;2024-01-30T14:39:04;10.80;81.20
53643;DHT22;39546;45.534;12.048;2024-01-30T14:45:06;11.00;81.00
53643;DHT22;39546;45.534;12.048;2024-01-30T14:51:09;10.70;81.80
53643;DHT22;39546;45.534;12.048;2024-01-30T14:57:11;10.90;82.10
53643;DHT22;39546;45.534;12.048;2024-01-30T15:03:12;11.40;81.10
53643;DHT22;39546;45.534;12.048;2024-01-30T15:09:14;11.80;81.10
53643;DHT22;39546;45.534;12.048;2024-01-30T15:15:17;12.00;80.60
53643;DHT22;39546;45.534;12.048;2024-01-30T15:21:19;12.10;81.00
53643;DHT22;39546;45.534;12.048;2024-01-30T15:27:24;12.40;80.80
53643;DHT22;39546;45.534;12.048;2024-01-30T15:33:28;12.50;81.40
53643;DHT22;39546;45.534;12.048;2024-01-30T15:39:30;12.80;81.40
53643;DHT22;39546;45.534;12.048;2024-01-30T15:45:31;12.20;82.10
53643;DHT22;39546;45.534;12.048;2024-01-30T15:51:34;11.70;83.50
53643;DHT22;39546;45.534;12.048;2024-01-30T15:57:36;11.10;84.70
53643;DHT22;39546;45.534;12.048;2024-01-30T16:03:38;10.70;85.20
53643;DHT22;39546;45.534;12.048;2024-01-30T16:09:53;10.60;85.40
53643;DHT22;39546;45.534;12.048;2024-01-30T16:15:55;10.50;85.20
53643;DHT22;39546;45.534;12.048;2024-01-30T16:21:59;10.40;85.20
53643;DHT22;39546;45.534;12.048;2024-01-30T16:28:00;10.30;84.90
53643;DHT22;39546;45.534;12.048;2024-01-30T16:34:02;10.30;84.70
53643;DHT22;39546;45.534;12.048;2024-01-30T16:40:04;10.00;85.00
53643;DHT22;39546;45.534;12.048;2024-01-30T16:46:06;10.00;84.70
53643;DHT22;39546;45.534;12.048;2024-01-30T16:52:08;9.80;84.50
53643;DHT22;39546;45.534;12.048;2024-01-30T16:58:09;9.50;85.10
53643;DHT22;39546;45.534;12.048;2024-01-30T17:04:15;9.30;85.20
53643;DHT22;39546;45.534;12.048;2024-01-30T17:10:18;9.20;85.80
53643;DHT22;39546;45.534;12.048;2024-01-30T17:16:20;9.30;85.40
53643;DHT22;39546;45.534;12.048;2024-01-30T17:22:22;9.50;84.70
53643;DHT22;39546;45.534;12.048;2024-01-30T17:28:23;9.30;84.50
53643;DHT22;39546;45.534;12.048;2024-01-30T17:34:25;9.20;84.60
53643;DHT22;39546;45.534;12.048;2024-01-30T17:40:27;9.00;85.10
53643;DHT22;39546;45.534;12.048;2024-01-30T17:46:29;9.00;85.00
53643;DHT22;39546;45.534;12.048;2024-01-30T17:52:49;9.00;84.40
53643;DHT22;39546;45.534;12.048;2024-01-30T17:58:51;8.70;84.90
53643;DHT22;39546;45.534;12.048;2024-01-30T18:04:52;8.70;84.80
53643;DHT22;39546;45.534;12.048;2024-01-30T18:10:54;8.30;84.80
53643;DHT22;39546;45.534;12.048;2024-01-30T18:17:28;8.20;85.10
53643;DHT22;39546;45.534;12.048;2024-01-30T18:23:30;8.10;85.10
53643;DHT22;39546;45.534;12.048;2024-01-30T18:29:31;7.90;85.40
53643;DHT22;39546;45.534;12.048;2024-01-30T18:35:33;7.90;85.20
53643;DHT22;39546;45.534;12.048;2024-01-30T18:41:43;7.70;85.30
53643;DHT22;39546;45.534;12.048;2024-01-30T18:47:45;7.70;85.70
53643;DHT22;39546;45.534;12.048;2024-01-30T18:53:47;7.70;85.10
53643;DHT22;39546;45.534;12.048;2024-01-30T18:59:49;7.70;85.50
53643;DHT22;39546;45.534;12.048;2024-01-30T19:05:51;7.90;85.10
53643;DHT22;39546;45.534;12.048;2024-01-30T19:11:53;8.20;84.70
53643;DHT22;39546;45.534;12.048;2024-01-30T19:17:55;8.10;84.10
53643;DHT22;39546;45.534;12.048;2024-01-30T19:23:56;7.90;84.30
53643;DHT22;39546;45.534;12.048;2024-01-30T19:30:00;8.00;84.10
53643;DHT22;39546;45.534;12.048;2024-01-30T19:36:02;8.00;83.80
53643;DHT22;39546;45.534;12.048;2024-01-30T19:42:05;8.00;83.60
53643;DHT22;39546;45.534;12.048;2024-01-30T19:48:07;7.90;83.30
53643;DHT22;39546;45.534;12.048;2024-01-30T19:54:11;7.90;83.00
53643;DHT22;39546;45.534;12.048;2024-01-30T20:00:18;7.80;83.00
53643;DHT22;39546;45.534;12.048;2024-01-30T20:06:20;7.70;82.80
53643;DHT22;39546;45.534;12.048;2024-01-30T20:12:21;7.60;82.80
53643;DHT22;39546;45.534;12.048;2024-01-30T20:18:30;7.50;82.50
53643;DHT22;39546;45.534;12.048;2024-01-30T20:24:33;7.40;82.70
53643;DHT22;39546;45.534;12.048;2024-01-30T20:30:34;7.30;82.60
53643;DHT22;39546;45.534;12.048;2024-01-30T20:36:36;7.40;82.40
53643;DHT22;39546;45.534;12.048;2024-01-30T20:42:38;7.40;82.20
53643;DHT22;39546;45.534;12.048;2024-01-30T20:48:40;7.20;82.10
53643;DHT22;39546;45.534;12.048;2024-01-30T20:54:45;7.20;82.00
53643;DHT22;39546;45.534;12.048;2024-01-30T21:00:46;7.20;81.90
53643;DHT22;39546;45.534;12.048;2024-01-30T21:06:48;7.00;81.70
53643;DHT22;39546;45.534;12.048;2024-01-30T21:12:50;6.90;82.20
53643;DHT22;39546;45.534;12.048;2024-01-30T21:18:52;6.80;82.20
53643;DHT22;39546;45.534;12.048;2024-01-30T21:24:54;6.90;82.00
53643;DHT22;39546;45.534;12.048;2024-01-30T21:30:55;7.00;81.80
53643;DHT22;39546;45.534;12.048;2024-01-30T21:36:57;7.10;81.50
53643;DHT22;39546;45.534;12.048;2024-01-30T21:43:26;7.10;81.30
53643;DHT22;39546;45.534;12.048;2024-01-30T21:49:28;7.10;81.00
53643;DHT22;39546;45.534;12.048;2024-01-30T21:55:29;7.00;80.90
53643;DHT22;39546;45.534;12.048;2024-01-30T22:01:48;7.00;80.80
53643;DHT22;39546;45.534;12.048;2024-01-30T22:07:50;6.70;81.10
53643;DHT22;39546;45.534;12.048;2024-01-30T22:13:51;6.70;81.10
53643;DHT22;39546;45.534;12.048;2024-01-30T22:19:55;6.70;80.90
53643;DHT22;39546;45.534;12.048;2024-01-30T22:25:58;6.70;80.70
53643;DHT22;39546;45.534;12.048;2024-01-30T22:32:00;6.60;80.60
53643;DHT22;39546;45.534;12.048;2024-01-30T22:38:04;6.60;80.50
53643;DHT22;39546;45.534;12.048;2024-01-30T22:44:08;6.40;80.60
53643;DHT22;39546;45.534;12.048;2024-01-30T22:50:10;6.30;80.70
53643;DHT22;39546;45.534;12.048;2024-01-30T22:56:12;6.20;80.80
53643;DHT22;39546;45.534;12.048;2024-01-30T23:02:14;6.20;80.70
53643;DHT22;39546;45.534;12.048;2024-01-30T23:08:16;6.30;80.60
53643;DHT22;39546;45.534;12.048;2024-01-30T23:14:18;6.40;80.60
53643;DHT22;39546;45.534;12.048;2024-01-30T23:20:19;6.30;80.40
53643;DHT22;39546;45.534;12.048;2024-01-30T23:26:21;6.20;80.30
53643;DHT22;39546;45.534;12.048;2024-01-30T23:32:23;6.10;80.50
53643;DHT22;39546;45.534;12.048;2024-01-30T23:38:24;6.10;80.60
53643;DHT22;39546;45.534;12.048;2024-01-30T23:44:26;6.20;80.60
53643;DHT22;39546;45.534;12.048;2024-01-30T23:50:28;6.20;80.50
53643;DHT22;39546;45.534;12.048;2024-01-30T23:56:29;6.10;80.30
